sensor_id;sensor_type;location;lat;lon;timestamp;P1;durP1;ratioP1;P2;durP2;ratioP2
4616;SDS011;2321;42.704;23.384;2023-04-06T00:00:10;49.20;;;6.97;;
4616;SDS011;2321;42.704;23.384;2023-04-06T00:02:38;66.40;;;9.40;;
4616;SDS011;2321;42.704;23.384;2023-04-06T00:05:05;40.67;;;6.10;;
4616;SDS011;2321;42.704;23.384;2023-04-06T00:07:33;57.67;;;8.10;;
4616;SDS011;2321;42.704;23.384;2023-04-06T00:10:00;70.37;;;11.50;;
4616;SDS011;2321;42.704;23.384;2023-04-06T00:12:28;55.50;;;8.37;;
4616;SDS011;2321;42.704;23.384;2023-04-06T00:14:55;52.70;;;7.50;;
4616;SDS011;2321;42.704;23.384;2023-04-06T00:17:23;64.47;;;10.47;;
4616;SDS011;2321;42.704;23.384;2023-04-06T00:19:50;62.07;;;9.20;;
4616;SDS011;2321;42.704;23.384;2023-04-06T00:22:17;40.83;;;6.00;;
4616;SDS011;2321;42.704;23.384;2023-04-06T00:24:44;54.00;;;7.50;;
4616;SDS011;2321;42.704;23.384;2023-04-06T00:27:11;61.53;;;8.20;;
4616;SDS011;2321;42.704;23.384;2023-04-06T00:29:39;59.53;;;8.23;;
4616;SDS011;2321;42.704;23.384;2023-04-06T00:32:06;69.63;;;9.60;;
4616;SDS011;2321;42.704;23.384;2023-04-06T00:34:34;60.93;;;9.50;;
4616;SDS011;2321;42.704;23.384;2023-04-06T00:37:01;53.80;;;8.13;;
4616;SDS011;2321;42.704;23.384;2023-04-06T00:39:28;57.67;;;8.27;;
4616;SDS011;2321;42.704;23.384;2023-04-06T00:41:55;63.73;;;8.80;;
4616;SDS011;2321;42.704;23.384;2023-04-06T00:44:22;61.27;;;9.40;;
4616;SDS011;2321;42.704;23.384;2023-04-06T00:46:50;50.17;;;7.70;;
4616;SDS011;2321;42.704;23.384;2023-04-06T00:49:17;55.67;;;8.60;;
4616;SDS011;2321;42.704;23.384;2023-04-06T00:51:45;55.87;;;8.23;;
4616;SDS011;2321;42.704;23.384;2023-04-06T00:54:12;58.20;;;8.77;;
4616;SDS011;2321;42.704;23.384;2023-04-06T00:56:39;62.83;;;11.73;;
4616;SDS011;2321;42.704;23.384;2023-04-06T00:59:08;47.80;;;7.40;;
4616;SDS011;2321;42.704;23.384;2023-04-06T01:01:35;103.23;;;19.13;;
4616;SDS011;2321;42.704;23.384;2023-04-06T01:04:01;51.10;;;9.87;;
4616;SDS011;2321;42.704;23.384;2023-04-06T01:06:29;60.70;;;11.00;;
4616;SDS011;2321;42.704;23.384;2023-04-06T01:08:57;68.87;;;12.07;;
4616;SDS011;2321;42.704;23.384;2023-04-06T01:11:24;61.10;;;11.30;;
4616;SDS011;2321;42.704;23.384;2023-04-06T01:13:51;58.80;;;10.70;;
4616;SDS011;2321;42.704;23.384;2023-04-06T01:16:18;50.47;;;9.40;;
4616;SDS011;2321;42.704;23.384;2023-04-06T01:18:45;43.20;;;7.73;;
4616;SDS011;2321;42.704;23.384;2023-04-06T01:21:12;68.60;;;11.67;;
4616;SDS011;2321;42.704;23.384;2023-04-06T01:23:43;56.47;;;9.60;;
4616;SDS011;2321;42.704;23.384;2023-04-06T01:26:11;52.03;;;8.80;;
4616;SDS011;2321;42.704;23.384;2023-04-06T01:28:38;42.93;;;7.83;;
4616;SDS011;2321;42.704;23.384;2023-04-06T01:31:05;63.03;;;11.73;;
4616;SDS011;2321;42.704;23.384;2023-04-06T01:33:32;61.30;;;10.47;;
4616;SDS011;2321;42.704;23.384;2023-04-06T01:35:59;44.97;;;8.43;;
4616;SDS011;2321;42.704;23.384;2023-04-06T01:38:26;59.27;;;10.70;;
4616;SDS011;2321;42.704;23.384;2023-04-06T01:40:55;57.37;;;9.90;;
4616;SDS011;2321;42.704;23.384;2023-04-06T01:43:22;51.27;;;9.07;;
4616;SDS011;2321;42.704;23.384;2023-04-06T01:45:48;72.37;;;12.70;;
4616;SDS011;2321;42.704;23.384;2023-04-06T01:48:16;62.53;;;11.43;;
4616;SDS011;2321;42.704;23.384;2023-04-06T01:50:43;38.20;;;7.33;;
4616;SDS011;2321;42.704;23.384;2023-04-06T01:53:10;54.23;;;9.40;;
4616;SDS011;2321;42.704;23.384;2023-04-06T01:55:37;55.00;;;9.77;;
4616;SDS011;2321;42.704;23.384;2023-04-06T01:58:05;51.30;;;9.30;;
4616;SDS011;2321;42.704;23.384;2023-04-06T02:00:32;47.47;;;8.73;;
4616;SDS011;2321;42.704;23.384;2023-04-06T02:02:59;60.63;;;10.43;;
4616;SDS011;2321;42.704;23.384;2023-04-06T02:05:26;62.87;;;11.90;;
4616;SDS011;2321;42.704;23.384;2023-04-06T02:07:54;44.63;;;7.97;;
4616;SDS011;2321;42.704;23.384;2023-04-06T02:10:21;68.83;;;12.20;;
4616;SDS011;2321;42.704;23.384;2023-04-06T02:12:48;40.87;;;7.43;;
4616;SDS011;2321;42.704;23.384;2023-04-06T02:15:17;65.40;;;11.03;;
4616;SDS011;2321;42.704;23.384;2023-04-06T02:17:44;58.27;;;11.17;;
4616;SDS011;2321;42.704;23.384;2023-04-06T02:20:11;64.70;;;12.77;;
4616;SDS011;2321;42.704;23.384;2023-04-06T02:22:38;59.33;;;9.67;;
4616;SDS011;2321;42.704;23.384;2023-04-06T02:25:06;40.73;;;7.40;;
4616;SDS011;2321;42.704;23.384;2023-04-06T02:27:34;50.40;;;9.10;;
4616;SDS011;2321;42.704;23.384;2023-04-06T02:30:01;72.73;;;12.07;;
4616;SDS011;2321;42.704;23.384;2023-04-06T02:32:29;75.63;;;15.80;;
4616;SDS011;2321;42.704;23.384;2023-04-06T02:34:56;74.87;;;13.40;;
4616;SDS011;2321;42.704;23.384;2023-04-06T02:37:23;78.43;;;13.40;;
4616;SDS011;2321;42.704;23.384;2023-04-06T02:39:50;35.00;;;6.37;;
4616;SDS011;2321;42.704;23.384;2023-04-06T02:42:17;53.70;;;10.40;;
4616;SDS011;2321;42.704;23.384;2023-04-06T02:44:44;79.50;;;15.30;;
4616;SDS011;2321;42.704;23.384;2023-04-06T02:47:11;71.17;;;12.53;;
4616;SDS011;2321;42.704;23.384;2023-04-06T02:49:39;89.27;;;15.83;;
4616;SDS011;2321;42.704;23.384;2023-04-06T02:52:06;79.13;;;14.13;;
4616;SDS011;2321;42.704;23.384;2023-04-06T02:54:33;52.33;;;11.17;;
4616;SDS011;2321;42.704;23.384;2023-04-06T02:57:00;70.27;;;12.30;;
4616;SDS011;2321;42.704;23.384;2023-04-06T02:59:27;85.07;;;13.97;;
4616;SDS011;2321;42.704;23.384;2023-04-06T03:01:53;67.60;;;12.13;;
4616;SDS011;2321;42.704;23.384;2023-04-06T03:04:20;67.43;;;12.57;;
4616;SDS011;2321;42.704;23.384;2023-04-06T03:06:51;69.13;;;12.67;;
4616;SDS011;2321;42.704;23.384;2023-04-06T03:09:20;42.93;;;8.13;;
4616;SDS011;2321;42.704;23.384;2023-04-06T03:11:47;78.33;;;15.03;;
4616;SDS011;2321;42.704;23.384;2023-04-06T03:14:13;60.07;;;10.70;;
4616;SDS011;2321;42.704;23.384;2023-04-06T03:16:42;73.40;;;18.30;;
4616;SDS011;2321;42.704;23.384;2023-04-06T03:19:09;45.87;;;8.83;;
4616;SDS011;2321;42.704;23.384;2023-04-06T03:21:36;58.33;;;11.03;;
4616;SDS011;2321;42.704;23.384;2023-04-06T03:24:05;68.93;;;12.40;;
4616;SDS011;2321;42.704;23.384;2023-04-06T03:26:33;57.73;;;11.37;;
4616;SDS011;2321;42.704;23.384;2023-04-06T03:29:00;70.37;;;13.03;;
4616;SDS011;2321;42.704;23.384;2023-04-06T03:31:27;79.10;;;14.50;;
4616;SDS011;2321;42.704;23.384;2023-04-06T03:33:54;68.57;;;13.37;;
4616;SDS011;2321;42.704;23.384;2023-04-06T03:36:21;76.73;;;15.97;;
4616;SDS011;2321;42.704;23.384;2023-04-06T03:38:47;52.73;;;9.97;;
4616;SDS011;2321;42.704;23.384;2023-04-06T03:41:16;75.27;;;13.77;;
4616;SDS011;2321;42.704;23.384;2023-04-06T03:43:43;63.53;;;12.47;;
4616;SDS011;2321;42.704;23.384;2023-04-06T03:46:10;53.37;;;10.43;;
4616;SDS011;2321;42.704;23.384;2023-04-06T03:48:37;71.57;;;12.87;;
4616;SDS011;2321;42.704;23.384;2023-04-06T03:51:04;57.80;;;10.60;;
4616;SDS011;2321;42.704;23.384;2023-04-06T03:53:31;57.40;;;10.43;;
4616;SDS011;2321;42.704;23.384;2023-04-06T03:55:58;53.57;;;9.80;;
4616;SDS011;2321;42.704;23.384;2023-04-06T03:58:26;68.80;;;13.33;;
4616;SDS011;2321;42.704;23.384;2023-04-06T04:00:53;76.03;;;13.30;;
4616;SDS011;2321;42.704;23.384;2023-04-06T04:03:20;72.60;;;13.13;;
4616;SDS011;2321;42.704;23.384;2023-04-06T04:05:48;64.87;;;12.40;;
4616;SDS011;2321;42.704;23.384;2023-04-06T04:08:16;60.13;;;10.87;;
4616;SDS011;2321;42.704;23.384;2023-04-06T04:10:43;52.40;;;9.57;;
4616;SDS011;2321;42.704;23.384;2023-04-06T04:13:09;66.07;;;11.97;;
4616;SDS011;2321;42.704;23.384;2023-04-06T04:15:38;64.37;;;11.90;;
4616;SDS011;2321;42.704;23.384;2023-04-06T04:18:05;40.57;;;8.00;;
4616;SDS011;2321;42.704;23.384;2023-04-06T04:20:31;67.40;;;12.43;;
4616;SDS011;2321;42.704;23.384;2023-04-06T04:22:59;54.87;;;10.27;;
4616;SDS011;2321;42.704;23.384;2023-04-06T04:25:26;63.03;;;12.00;;
4616;SDS011;2321;42.704;23.384;2023-04-06T04:27:52;41.90;;;10.60;;
4616;SDS011;2321;42.704;23.384;2023-04-06T04:30:19;67.80;;;14.53;;
4616;SDS011;2321;42.704;23.384;2023-04-06T04:32:48;56.10;;;10.40;;
4616;SDS011;2321;42.704;23.384;2023-04-06T04:35:15;72.50;;;14.37;;
4616;SDS011;2321;42.704;23.384;2023-04-06T04:37:42;72.33;;;13.90;;
4616;SDS011;2321;42.704;23.384;2023-04-06T04:40:09;54.93;;;10.53;;
4616;SDS011;2321;42.704;23.384;2023-04-06T04:42:36;68.10;;;13.77;;
4616;SDS011;2321;42.704;23.384;2023-04-06T04:45:04;61.77;;;12.30;;
4616;SDS011;2321;42.704;23.384;2023-04-06T04:47:31;85.87;;;16.03;;
4616;SDS011;2321;42.704;23.384;2023-04-06T04:49:59;84.50;;;15.67;;
4616;SDS011;2321;42.704;23.384;2023-04-06T04:52:26;68.23;;;13.70;;
4616;SDS011;2321;42.704;23.384;2023-04-06T04:54:53;65.73;;;13.33;;
4616;SDS011;2321;42.704;23.384;2023-04-06T04:57:20;47.93;;;10.20;;
4616;SDS011;2321;42.704;23.384;2023-04-06T04:59:47;60.13;;;11.70;;
4616;SDS011;2321;42.704;23.384;2023-04-06T05:02:15;60.40;;;11.90;;
4616;SDS011;2321;42.704;23.384;2023-04-06T05:04:42;50.77;;;10.10;;
4616;SDS011;2321;42.704;23.384;2023-04-06T05:07:10;56.57;;;12.77;;
4616;SDS011;2321;42.704;23.384;2023-04-06T05:09:37;70.07;;;14.83;;
4616;SDS011;2321;42.704;23.384;2023-04-06T05:12:04;73.63;;;15.23;;
4616;SDS011;2321;42.704;23.384;2023-04-06T05:14:31;56.17;;;12.13;;
4616;SDS011;2321;42.704;23.384;2023-04-06T05:16:58;38.47;;;8.77;;
4616;SDS011;2321;42.704;23.384;2023-04-06T05:19:25;53.17;;;12.17;;
4616;SDS011;2321;42.704;23.384;2023-04-06T05:21:52;67.03;;;14.33;;
4616;SDS011;2321;42.704;23.384;2023-04-06T05:24:21;53.43;;;11.03;;
4616;SDS011;2321;42.704;23.384;2023-04-06T05:26:48;48.17;;;18.23;;
4616;SDS011;2321;42.704;23.384;2023-04-06T05:29:15;79.17;;;31.37;;
4616;SDS011;2321;42.704;23.384;2023-04-06T05:31:43;69.03;;;27.10;;
4616;SDS011;2321;42.704;23.384;2023-04-06T05:34:10;69.40;;;26.73;;
4616;SDS011;2321;42.704;23.384;2023-04-06T05:36:37;68.13;;;21.60;;
4616;SDS011;2321;42.704;23.384;2023-04-06T05:39:05;61.53;;;23.23;;
4616;SDS011;2321;42.704;23.384;2023-04-06T05:41:33;107.13;;;41.00;;
4616;SDS011;2321;42.704;23.384;2023-04-06T05:44:00;120.80;;;44.37;;
4616;SDS011;2321;42.704;23.384;2023-04-06T05:46:27;118.57;;;44.33;;
4616;SDS011;2321;42.704;23.384;2023-04-06T05:48:54;335.13;;;93.97;;
4616;SDS011;2321;42.704;23.384;2023-04-06T05:51:21;325.73;;;89.87;;
4616;SDS011;2321;42.704;23.384;2023-04-06T05:53:48;214.73;;;63.60;;
4616;SDS011;2321;42.704;23.384;2023-04-06T05:56:15;423.57;;;121.00;;
4616;SDS011;2321;42.704;23.384;2023-04-06T05:58:43;548.13;;;133.03;;
4616;SDS011;2321;42.704;23.384;2023-04-06T06:01:10;381.07;;;90.80;;
4616;SDS011;2321;42.704;23.384;2023-04-06T06:03:37;357.80;;;88.77;;
4616;SDS011;2321;42.704;23.384;2023-04-06T06:06:04;275.13;;;74.67;;
4616;SDS011;2321;42.704;23.384;2023-04-06T06:08:31;509.17;;;117.73;;
4616;SDS011;2321;42.704;23.384;2023-04-06T06:10:58;483.10;;;106.67;;
4616;SDS011;2321;42.704;23.384;2023-04-06T06:13:25;352.80;;;79.83;;
4616;SDS011;2321;42.704;23.384;2023-04-06T06:15:53;352.37;;;88.10;;
4616;SDS011;2321;42.704;23.384;2023-04-06T06:18:20;267.20;;;73.77;;
4616;SDS011;2321;42.704;23.384;2023-04-06T06:20:47;271.13;;;72.20;;
4616;SDS011;2321;42.704;23.384;2023-04-06T06:23:14;359.53;;;88.83;;
4616;SDS011;2321;42.704;23.384;2023-04-06T06:25:41;384.83;;;101.47;;
4616;SDS011;2321;42.704;23.384;2023-04-06T06:28:08;282.13;;;75.00;;
4616;SDS011;2321;42.704;23.384;2023-04-06T06:30:35;262.63;;;68.67;;
4616;SDS011;2321;42.704;23.384;2023-04-06T06:33:03;169.90;;;55.57;;
4616;SDS011;2321;42.704;23.384;2023-04-06T06:35:30;154.17;;;53.27;;
4616;SDS011;2321;42.704;23.384;2023-04-06T06:37:57;119.43;;;46.70;;
4616;SDS011;2321;42.704;23.384;2023-04-06T06:40:24;140.50;;;50.50;;
4616;SDS011;2321;42.704;23.384;2023-04-06T06:42:52;198.23;;;61.67;;
4616;SDS011;2321;42.704;23.384;2023-04-06T06:45:18;212.67;;;62.97;;
4616;SDS011;2321;42.704;23.384;2023-04-06T06:47:45;226.70;;;67.50;;
4616;SDS011;2321;42.704;23.384;2023-04-06T06:50:14;441.40;;;113.37;;
4616;SDS011;2321;42.704;23.384;2023-04-06T06:52:41;409.67;;;90.97;;
4616;SDS011;2321;42.704;23.384;2023-04-06T06:55:08;483.43;;;105.97;;
4616;SDS011;2321;42.704;23.384;2023-04-06T06:57:36;418.20;;;101.07;;
4616;SDS011;2321;42.704;23.384;2023-04-06T07:00:04;367.17;;;86.13;;
4616;SDS011;2321;42.704;23.384;2023-04-06T07:02:33;480.37;;;119.90;;
4616;SDS011;2321;42.704;23.384;2023-04-06T07:05:01;356.37;;;83.63;;
4616;SDS011;2321;42.704;23.384;2023-04-06T07:07:31;294.83;;;77.33;;
4616;SDS011;2321;42.704;23.384;2023-04-06T07:09:58;239.20;;;69.57;;
4616;SDS011;2321;42.704;23.384;2023-04-06T07:12:25;270.10;;;72.30;;
4616;SDS011;2321;42.704;23.384;2023-04-06T07:14:52;274.87;;;72.43;;
4616;SDS011;2321;42.704;23.384;2023-04-06T07:17:19;122.40;;;48.83;;
4616;SDS011;2321;42.704;23.384;2023-04-06T07:19:46;138.13;;;51.60;;
4616;SDS011;2321;42.704;23.384;2023-04-06T07:22:13;125.37;;;49.70;;
4616;SDS011;2321;42.704;23.384;2023-04-06T07:24:41;95.50;;;44.07;;
4616;SDS011;2321;42.704;23.384;2023-04-06T07:27:08;102.23;;;42.10;;
4616;SDS011;2321;42.704;23.384;2023-04-06T07:29:35;77.37;;;35.87;;
4616;SDS011;2321;42.704;23.384;2023-04-06T07:32:02;87.70;;;38.03;;
4616;SDS011;2321;42.704;23.384;2023-04-06T07:34:29;75.97;;;36.97;;
4616;SDS011;2321;42.704;23.384;2023-04-06T07:36:56;75.13;;;35.00;;
4616;SDS011;2321;42.704;23.384;2023-04-06T07:39:23;84.80;;;32.33;;
4616;SDS011;2321;42.704;23.384;2023-04-06T07:41:52;145.57;;;49.47;;
4616;SDS011;2321;42.704;23.384;2023-04-06T07:44:19;71.20;;;26.80;;
4616;SDS011;2321;42.704;23.384;2023-04-06T07:46:46;179.87;;;56.47;;
4616;SDS011;2321;42.704;23.384;2023-04-06T07:49:13;69.00;;;22.37;;
4616;SDS011;2321;42.704;23.384;2023-04-06T07:51:40;215.67;;;72.33;;
4616;SDS011;2321;42.704;23.384;2023-04-06T07:54:07;83.73;;;38.27;;
4616;SDS011;2321;42.704;23.384;2023-04-06T07:56:34;89.00;;;38.87;;
4616;SDS011;2321;42.704;23.384;2023-04-06T07:59:02;107.30;;;43.03;;
4616;SDS011;2321;42.704;23.384;2023-04-06T08:01:29;74.47;;;34.77;;
4616;SDS011;2321;42.704;23.384;2023-04-06T08:03:56;106.33;;;42.67;;
4616;SDS011;2321;42.704;23.384;2023-04-06T08:06:24;192.70;;;69.13;;
4616;SDS011;2321;42.704;23.384;2023-04-06T08:08:51;82.70;;;39.03;;
4616;SDS011;2321;42.704;23.384;2023-04-06T08:11:18;77.47;;;36.33;;
4616;SDS011;2321;42.704;23.384;2023-04-06T08:13:45;86.67;;;37.10;;
4616;SDS011;2321;42.704;23.384;2023-04-06T08:16:13;87.40;;;37.53;;
4616;SDS011;2321;42.704;23.384;2023-04-06T08:18:40;84.37;;;36.77;;
4616;SDS011;2321;42.704;23.384;2023-04-06T08:21:07;66.00;;;30.73;;
4616;SDS011;2321;42.704;23.384;2023-04-06T08:23:34;91.07;;;37.57;;
4616;SDS011;2321;42.704;23.384;2023-04-06T08:26:01;87.70;;;37.17;;
4616;SDS011;2321;42.704;23.384;2023-04-06T08:28:27;111.83;;;40.57;;
4616;SDS011;2321;42.704;23.384;2023-04-06T08:30:54;90.77;;;37.77;;
4616;SDS011;2321;42.704;23.384;2023-04-06T08:33:23;75.90;;;34.07;;
4616;SDS011;2321;42.704;23.384;2023-04-06T08:35:49;98.47;;;38.90;;
4616;SDS011;2321;42.704;23.384;2023-04-06T08:38:16;75.47;;;30.03;;
4616;SDS011;2321;42.704;23.384;2023-04-06T08:40:43;63.63;;;28.80;;
4616;SDS011;2321;42.704;23.384;2023-04-06T08:43:13;51.00;;;28.53;;
4616;SDS011;2321;42.704;23.384;2023-04-06T08:45:41;126.00;;;37.13;;
4616;SDS011;2321;42.704;23.384;2023-04-06T08:48:09;110.80;;;48.47;;
4616;SDS011;2321;42.704;23.384;2023-04-06T08:50:39;89.97;;;34.83;;
4616;SDS011;2321;42.704;23.384;2023-04-06T08:53:06;75.00;;;37.10;;
4616;SDS011;2321;42.704;23.384;2023-04-06T08:55:34;96.23;;;41.07;;
4616;SDS011;2321;42.704;23.384;2023-04-06T08:58:02;107.20;;;47.43;;
4616;SDS011;2321;42.704;23.384;2023-04-06T09:00:35;77.40;;;30.30;;
4616;SDS011;2321;42.704;23.384;2023-04-06T09:03:07;86.00;;;33.37;;
4616;SDS011;2321;42.704;23.384;2023-04-06T09:05:34;66.30;;;26.63;;
4616;SDS011;2321;42.704;23.384;2023-04-06T09:08:02;58.20;;;23.43;;
4616;SDS011;2321;42.704;23.384;2023-04-06T09:10:30;74.73;;;31.93;;
4616;SDS011;2321;42.704;23.384;2023-04-06T09:13:02;84.30;;;29.43;;
4616;SDS011;2321;42.704;23.384;2023-04-06T09:15:30;82.53;;;29.23;;
4616;SDS011;2321;42.704;23.384;2023-04-06T09:17:57;66.00;;;24.97;;
4616;SDS011;2321;42.704;23.384;2023-04-06T09:20:24;77.77;;;24.40;;
4616;SDS011;2321;42.704;23.384;2023-04-06T09:22:53;79.80;;;21.73;;
4616;SDS011;2321;42.704;23.384;2023-04-06T09:25:22;71.33;;;21.17;;
4616;SDS011;2321;42.704;23.384;2023-04-06T09:27:57;62.70;;;21.80;;
4616;SDS011;2321;42.704;23.384;2023-04-06T09:30:25;69.65;;;28.75;;
4616;SDS011;2321;42.704;23.384;2023-04-06T09:32:53;67.30;;;22.83;;
4616;SDS011;2321;42.704;23.384;2023-04-06T09:35:21;47.77;;;16.90;;
4616;SDS011;2321;42.704;23.384;2023-04-06T09:37:49;67.60;;;23.70;;
4616;SDS011;2321;42.704;23.384;2023-04-06T09:40:17;89.27;;;42.60;;
4616;SDS011;2321;42.704;23.384;2023-04-06T09:42:46;113.10;;;53.97;;
4616;SDS011;2321;42.704;23.384;2023-04-06T09:45:15;98.47;;;45.97;;
4616;SDS011;2321;42.704;23.384;2023-04-06T09:47:42;83.47;;;39.03;;
4616;SDS011;2321;42.704;23.384;2023-04-06T09:50:11;71.07;;;37.60;;
4616;SDS011;2321;42.704;23.384;2023-04-06T09:52:40;92.60;;;43.73;;
4616;SDS011;2321;42.704;23.384;2023-04-06T09:55:09;80.73;;;40.37;;
4616;SDS011;2321;42.704;23.384;2023-04-06T09:57:37;110.67;;;44.17;;
4616;SDS011;2321;42.704;23.384;2023-04-06T10:00:16;77.27;;;34.77;;
4616;SDS011;2321;42.704;23.384;2023-04-06T10:02:48;77.40;;;42.70;;
4616;SDS011;2321;42.704;23.384;2023-04-06T10:05:20;53.13;;;26.27;;
4616;SDS011;2321;42.704;23.384;2023-04-06T10:07:53;75.27;;;25.20;;
4616;SDS011;2321;42.704;23.384;2023-04-06T10:10:26;71.80;;;27.43;;
4616;SDS011;2321;42.704;23.384;2023-04-06T10:12:54;66.50;;;28.27;;
4616;SDS011;2321;42.704;23.384;2023-04-06T10:15:23;94.30;;;33.60;;
4616;SDS011;2321;42.704;23.384;2023-04-06T10:17:50;69.60;;;25.37;;
4616;SDS011;2321;42.704;23.384;2023-04-06T10:20:18;144.23;;;52.30;;
4616;SDS011;2321;42.704;23.384;2023-04-06T10:22:51;225.53;;;87.93;;
4616;SDS011;2321;42.704;23.384;2023-04-06T10:25:28;74.50;;;29.33;;
4616;SDS011;2321;42.704;23.384;2023-04-06T10:27:58;82.47;;;28.10;;
4616;SDS011;2321;42.704;23.384;2023-04-06T10:30:27;59.60;;;20.40;;
4616;SDS011;2321;42.704;23.384;2023-04-06T10:32:54;62.20;;;18.07;;
4616;SDS011;2321;42.704;23.384;2023-04-06T10:35:21;59.53;;;16.30;;
4616;SDS011;2321;42.704;23.384;2023-04-06T10:37:49;71.73;;;20.40;;
4616;SDS011;2321;42.704;23.384;2023-04-06T10:40:18;88.40;;;27.20;;
4616;SDS011;2321;42.704;23.384;2023-04-06T10:42:49;51.57;;;13.70;;
4616;SDS011;2321;42.704;23.384;2023-04-06T10:45:19;96.83;;;21.20;;
4616;SDS011;2321;42.704;23.384;2023-04-06T10:47:49;53.17;;;13.53;;
4616;SDS011;2321;42.704;23.384;2023-04-06T10:50:16;50.27;;;14.80;;
4616;SDS011;2321;42.704;23.384;2023-04-06T10:52:44;34.20;;;12.00;;
4616;SDS011;2321;42.704;23.384;2023-04-06T10:55:12;46.70;;;12.67;;
4616;SDS011;2321;42.704;23.384;2023-04-06T10:57:40;51.83;;;12.97;;
4616;SDS011;2321;42.704;23.384;2023-04-06T11:00:07;53.40;;;18.87;;
4616;SDS011;2321;42.704;23.384;2023-04-06T11:02:35;66.23;;;19.60;;
4616;SDS011;2321;42.704;23.384;2023-04-06T11:05:04;40.50;;;14.53;;
4616;SDS011;2321;42.704;23.384;2023-04-06T11:07:32;48.20;;;19.47;;
4616;SDS011;2321;42.704;23.384;2023-04-06T11:09:59;46.63;;;20.90;;
4616;SDS011;2321;42.704;23.384;2023-04-06T11:12:26;53.57;;;19.80;;
4616;SDS011;2321;42.704;23.384;2023-04-06T11:14:55;70.30;;;29.43;;
4616;SDS011;2321;42.704;23.384;2023-04-06T11:17:28;133.83;;;60.53;;
4616;SDS011;2321;42.704;23.384;2023-04-06T11:19:55;81.63;;;48.13;;
4616;SDS011;2321;42.704;23.384;2023-04-06T11:22:23;65.03;;;36.80;;
4616;SDS011;2321;42.704;23.384;2023-04-06T11:24:50;66.53;;;35.07;;
4616;SDS011;2321;42.704;23.384;2023-04-06T11:27:17;79.03;;;45.27;;
4616;SDS011;2321;42.704;23.384;2023-04-06T11:29:45;76.07;;;36.47;;
4616;SDS011;2321;42.704;23.384;2023-04-06T11:32:19;198.43;;;77.00;;
4616;SDS011;2321;42.704;23.384;2023-04-06T11:34:48;112.80;;;61.00;;
4616;SDS011;2321;42.704;23.384;2023-04-06T11:37:15;101.10;;;57.00;;
4616;SDS011;2321;42.704;23.384;2023-04-06T11:39:46;113.13;;;55.63;;
4616;SDS011;2321;42.704;23.384;2023-04-06T11:42:21;98.07;;;52.60;;
4616;SDS011;2321;42.704;23.384;2023-04-06T11:44:52;136.00;;;65.60;;
4616;SDS011;2321;42.704;23.384;2023-04-06T11:47:20;91.27;;;45.07;;
4616;SDS011;2321;42.704;23.384;2023-04-06T11:50:04;96.03;;;49.83;;
4616;SDS011;2321;42.704;23.384;2023-04-06T11:52:32;128.10;;;53.63;;
4616;SDS011;2321;42.704;23.384;2023-04-06T11:55:09;146.03;;;63.07;;
4616;SDS011;2321;42.704;23.384;2023-04-06T11:57:37;125.87;;;58.20;;
4616;SDS011;2321;42.704;23.384;2023-04-06T12:00:05;181.53;;;76.57;;
4616;SDS011;2321;42.704;23.384;2023-04-06T12:02:33;122.37;;;61.33;;
4616;SDS011;2321;42.704;23.384;2023-04-06T12:05:00;86.00;;;49.43;;
4616;SDS011;2321;42.704;23.384;2023-04-06T12:07:27;117.33;;;60.27;;
4616;SDS011;2321;42.704;23.384;2023-04-06T12:09:54;121.63;;;61.07;;
4616;SDS011;2321;42.704;23.384;2023-04-06T12:12:23;102.57;;;57.83;;
4616;SDS011;2321;42.704;23.384;2023-04-06T12:14:49;102.87;;;55.67;;
4616;SDS011;2321;42.704;23.384;2023-04-06T12:17:17;86.97;;;50.93;;
4616;SDS011;2321;42.704;23.384;2023-04-06T12:19:44;78.57;;;39.37;;
4616;SDS011;2321;42.704;23.384;2023-04-06T12:22:11;92.67;;;50.50;;
4616;SDS011;2321;42.704;23.384;2023-04-06T12:24:38;65.97;;;41.37;;
4616;SDS011;2321;42.704;23.384;2023-04-06T12:27:06;66.30;;;39.90;;
4616;SDS011;2321;42.704;23.384;2023-04-06T12:29:35;71.57;;;42.13;;
4616;SDS011;2321;42.704;23.384;2023-04-06T12:32:02;134.90;;;67.77;;
4616;SDS011;2321;42.704;23.384;2023-04-06T12:34:29;73.83;;;46.97;;
4616;SDS011;2321;42.704;23.384;2023-04-06T12:36:55;68.40;;;37.93;;
4616;SDS011;2321;42.704;23.384;2023-04-06T12:39:22;74.43;;;37.90;;
4616;SDS011;2321;42.704;23.384;2023-04-06T12:41:50;66.40;;;36.10;;
4616;SDS011;2321;42.704;23.384;2023-04-06T12:44:17;99.13;;;42.47;;
4616;SDS011;2321;42.704;23.384;2023-04-06T12:46:45;211.53;;;84.13;;
4616;SDS011;2321;42.704;23.384;2023-04-06T12:49:12;223.80;;;95.87;;
4616;SDS011;2321;42.704;23.384;2023-04-06T12:51:41;268.47;;;109.77;;
4616;SDS011;2321;42.704;23.384;2023-04-06T12:54:08;256.47;;;109.10;;
4616;SDS011;2321;42.704;23.384;2023-04-06T12:56:36;87.40;;;53.00;;
4616;SDS011;2321;42.704;23.384;2023-04-06T12:59:03;109.87;;;63.67;;
4616;SDS011;2321;42.704;23.384;2023-04-06T13:01:30;88.60;;;49.50;;
4616;SDS011;2321;42.704;23.384;2023-04-06T13:03:59;264.53;;;94.67;;
4616;SDS011;2321;42.704;23.384;2023-04-06T13:06:26;266.13;;;88.77;;
4616;SDS011;2321;42.704;23.384;2023-04-06T13:08:54;274.60;;;97.37;;
4616;SDS011;2321;42.704;23.384;2023-04-06T13:11:22;102.17;;;53.70;;
4616;SDS011;2321;42.704;23.384;2023-04-06T13:13:49;144.23;;;69.07;;
4616;SDS011;2321;42.704;23.384;2023-04-06T13:16:16;95.93;;;50.73;;
4616;SDS011;2321;42.704;23.384;2023-04-06T13:18:43;103.23;;;56.13;;
4616;SDS011;2321;42.704;23.384;2023-04-06T13:21:14;125.03;;;67.37;;
4616;SDS011;2321;42.704;23.384;2023-04-06T13:23:41;117.63;;;59.10;;
4616;SDS011;2321;42.704;23.384;2023-04-06T13:26:09;144.53;;;67.97;;
4616;SDS011;2321;42.704;23.384;2023-04-06T13:28:36;155.20;;;78.37;;
4616;SDS011;2321;42.704;23.384;2023-04-06T13:31:04;182.47;;;79.57;;
4616;SDS011;2321;42.704;23.384;2023-04-06T13:33:31;147.77;;;73.67;;
4616;SDS011;2321;42.704;23.384;2023-04-06T13:35:59;206.77;;;86.80;;
4616;SDS011;2321;42.704;23.384;2023-04-06T13:38:27;243.07;;;117.57;;
4616;SDS011;2321;42.704;23.384;2023-04-06T13:40:55;198.03;;;102.00;;
4616;SDS011;2321;42.704;23.384;2023-04-06T13:43:22;346.00;;;107.80;;
4616;SDS011;2321;42.704;23.384;2023-04-06T13:45:51;321.83;;;117.77;;
4616;SDS011;2321;42.704;23.384;2023-04-06T13:48:19;299.93;;;91.73;;
4616;SDS011;2321;42.704;23.384;2023-04-06T13:50:46;301.87;;;107.33;;
4616;SDS011;2321;42.704;23.384;2023-04-06T13:53:13;332.97;;;103.07;;
4616;SDS011;2321;42.704;23.384;2023-04-06T13:55:41;331.83;;;113.60;;
4616;SDS011;2321;42.704;23.384;2023-04-06T13:58:08;299.27;;;97.20;;
4616;SDS011;2321;42.704;23.384;2023-04-06T14:00:35;327.40;;;94.47;;
4616;SDS011;2321;42.704;23.384;2023-04-06T14:03:03;333.60;;;108.00;;
4616;SDS011;2321;42.704;23.384;2023-04-06T14:05:30;279.47;;;98.20;;
4616;SDS011;2321;42.704;23.384;2023-04-06T14:07:57;271.97;;;90.40;;
4616;SDS011;2321;42.704;23.384;2023-04-06T14:10:24;291.73;;;105.57;;
4616;SDS011;2321;42.704;23.384;2023-04-06T14:12:54;268.70;;;88.27;;
4616;SDS011;2321;42.704;23.384;2023-04-06T14:15:21;291.70;;;103.23;;
4616;SDS011;2321;42.704;23.384;2023-04-06T14:17:49;294.97;;;100.67;;
4616;SDS011;2321;42.704;23.384;2023-04-06T14:20:16;319.57;;;98.77;;
4616;SDS011;2321;42.704;23.384;2023-04-06T14:22:43;270.20;;;91.87;;
4616;SDS011;2321;42.704;23.384;2023-04-06T14:25:10;320.73;;;94.53;;
4616;SDS011;2321;42.704;23.384;2023-04-06T14:27:37;351.03;;;96.73;;
4616;SDS011;2321;42.704;23.384;2023-04-06T14:30:07;314.03;;;93.47;;
4616;SDS011;2321;42.704;23.384;2023-04-06T14:32:34;357.30;;;102.80;;